Terminal Aerodrome Forecast
Issued by NWS Sioux Falls, SD

Home | Current Version | Previous Version | Graphics & Text | Print | Product List | Glossary On
Versions: 1 2 3 4 5 6 7 8 9 10 11 12 13 14 15
000
FTUS43 KFSD 281724
TAFHON
TAF
KHON 281724Z 2818/2918 35010KT 4SM SHRA BR SCT009 OVC013
      TEMPO 2818/2821 BKN009
     FM282200 35007KT P6SM OVC022
     FM290100 28005KT P6SM SCT028
     FM290600 21004KT P6SM BKN050
     FM291000 27005KT 3SM BR SKC
     FM291500 33012KT P6SM SCT030=

USA.gov is the U.S. government's official web portal to all federal, state and local government web resources and services.